SLCB/CBB METAR and TAF weather

Enter ICAO airport designator
Station Type Date Time Source
SLCB METAR 2022/07/01 01:00 UTC NOAA

SLCB 010100Z 00000KT 9999 NSC 12/M07 Q1022


Station Type Date Time Source
SLCB Decoded METAR 2022/07/01 01:00 UTC NOAA

Cochabamba, Bolivia (SLCB) 17-25S 066-11W 2570M
Jun 30, 2022 - 09:00 PM EDT / 2022.07.01 0100 UTC
Wind: Calm:0
Visibility: greater than 7 mile(s):0
Temperature: 53 F (12 C)
Dew Point: 19 F (-7 C)
Relative Humidity: 25%
Pressure (altimeter): 30.18 in. Hg (1022 hPa)
ob: SLCB 010100Z 00000KT 9999 NSC 12/M07 Q1022
cycle: 1

Station Type Date Time Source
SLCB TAF 2022/06/30 18:33 UTC NOAA

TAF TAF SLCB 301600Z 3018/0118 24010KT 9999 NSC TX26/3019Z TN03/0111Z
BECMG 0102/0104 00000KT

Example: see airport list